الصفحة الرئيسية
METAR-TAF:

METAR-TAF

مطار :

مطار بالما دي مايوركا

بالما دي مايوركا, إسبانيا

دائرة عرض: 39-33N, خط طول: 002-44E, ارتفاع: 4 متر

مراقبة الطقس الحالي

تاريخ ووقت الإصدار 38 دقيقة قبل الساعة 03:30UTC
ريح 2 عقدةمن اتجاهات متغيرة
درجة الحرارة 10°درجة مئوية
الرطوبة 93%
ضغط 1027 hPa
الرؤية 10 كم أو أكثر
غيوم قليلة على ارتفاع 2000 قدم

METAR: LEPA 100330Z VRB02KT 9999 FEW020 10/09 Q1027 NOSIG

زمن: 05:08 (04:08 UTC)

توقعات

تاريخ ووقت الإصدار 5ساعات و 8 دقيقة قبل الساعة 23:00UTC
التوقعات صالحة من10 الساعة 00 UTC إلى 10 الساعة 24 UTC
ريح 3 عقدةمن اتجاهات متغيرة
الرؤية 10 كم أو أكثر
غيوم قليلة على ارتفاع 4000 قدم
مؤقت
من 10 الساعة 03 UTC إلى 10 الساعة 12 UTC
غيوم مفككة على ارتفاع 2000 قدم
أصبح
من 10 الساعة 10 UTC إلى 10 الساعة 12 UTC
ريح 9 عقدة من الجنوب الغربي
أصبح
من 10 الساعة 18 UTC إلى 10 الساعة 20 UTC
ريح 6 عقدة من الشمال/الشمال الغربي

TAF: LEPA 092300Z 1000/1024 VRB03KT 9999 FEW040 TX17/1012Z TN07/1006Z TEMPO 1003/1012 BKN020 BECMG 1010/1012 22009KT BECMG 1018/1020 34006KT

أرصاد الطقس والتوقعات من أكثر من 4000 مطار (تقارير الطقس للمطار METAR والتنبؤ بالطقس بالمطارTAF).

المحطات المتاحة هي النقط الصفراء والحمراء على الخريطة.

حرك المؤشر فوق النقطة لمعرفة اسم المحطة.

ثم انقر لمعرفة أرصاد وتوقعات الطقس.

لتغيير الخارطة: اضغط على الأزرار الخضراء مع رمز الصليب الأسود للتكبير. على الزر الأخضر مع شرطة للتصغير، أو على الأسهم الخضراء للخرائط المجاورة.


METAR-TAF: